sensor_id;sensor_type;location;lat;lon;timestamp;P1;durP1;ratioP1;P2;durP2;ratioP2
72974;SDS011;61166;54.228;37.632;2023-04-10T00:01:23;91.57;;;59.40;;
72974;SDS011;61166;54.228;37.632;2023-04-10T00:03:49;101.55;;;64.25;;
72974;SDS011;61166;54.228;37.632;2023-04-10T00:06:17;97.67;;;63.83;;
72974;SDS011;61166;54.228;37.632;2023-04-10T00:08:43;102.25;;;64.95;;
72974;SDS011;61166;54.228;37.632;2023-04-10T00:11:10;99.05;;;62.40;;
72974;SDS011;61166;54.228;37.632;2023-04-10T00:13:36;96.18;;;62.00;;
72974;SDS011;61166;54.228;37.632;2023-04-10T00:16:03;94.43;;;60.53;;
72974;SDS011;61166;54.228;37.632;2023-04-10T00:18:29;99.27;;;63.73;;
72974;SDS011;61166;54.228;37.632;2023-04-10T00:20:56;98.60;;;62.28;;
72974;SDS011;61166;54.228;37.632;2023-04-10T00:23:22;102.70;;;64.30;;
72974;SDS011;61166;54.228;37.632;2023-04-10T00:25:49;104.45;;;65.05;;
72974;SDS011;61166;54.228;37.632;2023-04-10T00:28:15;103.72;;;65.05;;
72974;SDS011;61166;54.228;37.632;2023-04-10T00:30:42;100.70;;;63.77;;
72974;SDS011;61166;54.228;37.632;2023-04-10T00:33:08;99.10;;;62.28;;
72974;SDS011;61166;54.228;37.632;2023-04-10T00:35:35;98.53;;;62.55;;
72974;SDS011;61166;54.228;37.632;2023-04-10T00:38:02;101.40;;;65.18;;
72974;SDS011;61166;54.228;37.632;2023-04-10T00:40:28;102.45;;;64.40;;
72974;SDS011;61166;54.228;37.632;2023-04-10T00:42:54;94.93;;;61.73;;
72974;SDS011;61166;54.228;37.632;2023-04-10T00:45:21;101.72;;;65.15;;
72974;SDS011;61166;54.228;37.632;2023-04-10T00:47:48;110.05;;;70.00;;
72974;SDS011;61166;54.228;37.632;2023-04-10T00:50:14;103.30;;;66.05;;
72974;SDS011;61166;54.228;37.632;2023-04-10T00:52:41;97.88;;;61.33;;
72974;SDS011;61166;54.228;37.632;2023-04-10T00:55:08;96.37;;;62.60;;
72974;SDS011;61166;54.228;37.632;2023-04-10T00:57:34;103.22;;;66.38;;
72974;SDS011;61166;54.228;37.632;2023-04-10T01:00:01;106.72;;;66.05;;
72974;SDS011;61166;54.228;37.632;2023-04-10T01:02:27;97.40;;;63.80;;
72974;SDS011;61166;54.228;37.632;2023-04-10T01:04:54;101.88;;;64.55;;
72974;SDS011;61166;54.228;37.632;2023-04-10T01:07:25;107.20;;;67.43;;
72974;SDS011;61166;54.228;37.632;2023-04-10T01:17:40;107.93;;;66.45;;
72974;SDS011;61166;54.228;37.632;2023-04-10T01:20:12;109.33;;;67.47;;
72974;SDS011;61166;54.228;37.632;2023-04-10T01:25:37;109.75;;;67.68;;
72974;SDS011;61166;54.228;37.632;2023-04-10T01:30:27;98.80;;;63.58;;
72974;SDS011;61166;54.228;37.632;2023-04-10T01:32:54;91.30;;;59.93;;
72974;SDS011;61166;54.228;37.632;2023-04-10T01:35:23;92.35;;;60.58;;
72974;SDS011;61166;54.228;37.632;2023-04-10T01:37:50;93.72;;;58.97;;
72974;SDS011;61166;54.228;37.632;2023-04-10T01:40:18;88.75;;;59.35;;
72974;SDS011;61166;54.228;37.632;2023-04-10T01:42:49;95.40;;;62.75;;
72974;SDS011;61166;54.228;37.632;2023-04-10T01:45:20;87.97;;;57.97;;
72974;SDS011;61166;54.228;37.632;2023-04-10T01:47:48;89.43;;;59.25;;
72974;SDS011;61166;54.228;37.632;2023-04-10T01:50:15;91.65;;;59.67;;
72974;SDS011;61166;54.228;37.632;2023-04-10T01:52:41;85.22;;;55.95;;
72974;SDS011;61166;54.228;37.632;2023-04-10T01:55:08;84.70;;;58.05;;
72974;SDS011;61166;54.228;37.632;2023-04-10T01:57:35;97.03;;;63.30;;
72974;SDS011;61166;54.228;37.632;2023-04-10T02:00:02;96.47;;;62.78;;
72974;SDS011;61166;54.228;37.632;2023-04-10T02:02:29;99.20;;;63.33;;
72974;SDS011;61166;54.228;37.632;2023-04-10T02:04:56;100.60;;;63.90;;
72974;SDS011;61166;54.228;37.632;2023-04-10T02:07:30;97.80;;;63.25;;
72974;SDS011;61166;54.228;37.632;2023-04-10T02:10:07;99.00;;;64.87;;
72974;SDS011;61166;54.228;37.632;2023-04-10T02:15:01;97.82;;;63.78;;
72974;SDS011;61166;54.228;37.632;2023-04-10T02:17:29;99.60;;;62.00;;
72974;SDS011;61166;54.228;37.632;2023-04-10T02:19:56;91.88;;;60.08;;
72974;SDS011;61166;54.228;37.632;2023-04-10T02:22:23;86.50;;;57.80;;
72974;SDS011;61166;54.228;37.632;2023-04-10T02:24:50;86.43;;;56.28;;
72974;SDS011;61166;54.228;37.632;2023-04-10T02:27:30;85.57;;;57.80;;
72974;SDS011;61166;54.228;37.632;2023-04-10T02:29:56;84.18;;;57.45;;
72974;SDS011;61166;54.228;37.632;2023-04-10T02:32:23;83.43;;;56.78;;
72974;SDS011;61166;54.228;37.632;2023-04-10T02:34:49;90.30;;;58.40;;
72974;SDS011;61166;54.228;37.632;2023-04-10T02:37:16;86.93;;;58.90;;
72974;SDS011;61166;54.228;37.632;2023-04-10T02:39:42;91.13;;;60.70;;
72974;SDS011;61166;54.228;37.632;2023-04-10T02:42:09;94.07;;;61.67;;
72974;SDS011;61166;54.228;37.632;2023-04-10T02:44:35;91.38;;;59.33;;
72974;SDS011;61166;54.228;37.632;2023-04-10T02:47:02;92.93;;;60.27;;
72974;SDS011;61166;54.228;37.632;2023-04-10T02:49:28;94.15;;;60.55;;
72974;SDS011;61166;54.228;37.632;2023-04-10T02:51:54;92.20;;;61.10;;
72974;SDS011;61166;54.228;37.632;2023-04-10T02:54:21;96.68;;;62.50;;
72974;SDS011;61166;54.228;37.632;2023-04-10T02:56:47;93.10;;;62.70;;
72974;SDS011;61166;54.228;37.632;2023-04-10T02:59:14;98.57;;;64.40;;
72974;SDS011;61166;54.228;37.632;2023-04-10T03:01:40;102.40;;;65.93;;
72974;SDS011;61166;54.228;37.632;2023-04-10T03:04:07;107.18;;;67.72;;
72974;SDS011;61166;54.228;37.632;2023-04-10T03:06:33;108.78;;;66.35;;
72974;SDS011;61166;54.228;37.632;2023-04-10T03:09:00;98.20;;;61.88;;
72974;SDS011;61166;54.228;37.632;2023-04-10T03:11:26;96.10;;;61.37;;
72974;SDS011;61166;54.228;37.632;2023-04-10T03:13:52;92.32;;;61.47;;
72974;SDS011;61166;54.228;37.632;2023-04-10T03:16:19;98.93;;;62.97;;
72974;SDS011;61166;54.228;37.632;2023-04-10T03:18:46;92.05;;;60.97;;
72974;SDS011;61166;54.228;37.632;2023-04-10T03:21:12;93.32;;;60.28;;
72974;SDS011;61166;54.228;37.632;2023-04-10T03:23:39;88.10;;;58.90;;
72974;SDS011;61166;54.228;37.632;2023-04-10T03:26:05;102.38;;;66.03;;
72974;SDS011;61166;54.228;37.632;2023-04-10T03:28:31;99.15;;;63.78;;
72974;SDS011;61166;54.228;37.632;2023-04-10T03:30:58;97.75;;;63.65;;
72974;SDS011;61166;54.228;37.632;2023-04-10T03:33:24;94.00;;;61.95;;
72974;SDS011;61166;54.228;37.632;2023-04-10T03:35:51;87.93;;;60.75;;
72974;SDS011;61166;54.228;37.632;2023-04-10T03:38:17;86.95;;;60.40;;
72974;SDS011;61166;54.228;37.632;2023-04-10T03:40:43;87.07;;;63.28;;
72974;SDS011;61166;54.228;37.632;2023-04-10T03:43:10;85.60;;;61.58;;
72974;SDS011;61166;54.228;37.632;2023-04-10T03:45:36;77.63;;;57.40;;
72974;SDS011;61166;54.228;37.632;2023-04-10T03:48:03;68.63;;;54.17;;
72974;SDS011;61166;54.228;37.632;2023-04-10T03:50:29;70.40;;;54.83;;
72974;SDS011;61166;54.228;37.632;2023-04-10T03:52:56;70.55;;;54.92;;
72974;SDS011;61166;54.228;37.632;2023-04-10T03:55:22;72.65;;;57.90;;
72974;SDS011;61166;54.228;37.632;2023-04-10T03:57:49;69.63;;;53.47;;
72974;SDS011;61166;54.228;37.632;2023-04-10T04:00:15;67.53;;;53.88;;
72974;SDS011;61166;54.228;37.632;2023-04-10T04:02:42;68.13;;;55.42;;
72974;SDS011;61166;54.228;37.632;2023-04-10T04:05:08;65.82;;;54.65;;
72974;SDS011;61166;54.228;37.632;2023-04-10T04:07:35;64.38;;;57.30;;
72974;SDS011;61166;54.228;37.632;2023-04-10T04:10:01;61.15;;;54.05;;
72974;SDS011;61166;54.228;37.632;2023-04-10T04:12:28;50.20;;;45.10;;
72974;SDS011;61166;54.228;37.632;2023-04-10T04:14:54;41.07;;;36.80;;
72974;SDS011;61166;54.228;37.632;2023-04-10T04:17:21;40.13;;;28.58;;
72974;SDS011;61166;54.228;37.632;2023-04-10T04:19:48;28.48;;;22.65;;
72974;SDS011;61166;54.228;37.632;2023-04-10T04:22:14;31.00;;;20.98;;
72974;SDS011;61166;54.228;37.632;2023-04-10T04:24:41;26.98;;;20.35;;
72974;SDS011;61166;54.228;37.632;2023-04-10T04:27:07;27.20;;;19.73;;
72974;SDS011;61166;54.228;37.632;2023-04-10T04:29:34;31.33;;;21.48;;
72974;SDS011;61166;54.228;37.632;2023-04-10T04:32:00;27.75;;;21.23;;
72974;SDS011;61166;54.228;37.632;2023-04-10T04:34:27;26.92;;;19.95;;
72974;SDS011;61166;54.228;37.632;2023-04-10T04:36:53;27.02;;;18.33;;
72974;SDS011;61166;54.228;37.632;2023-04-10T04:39:20;29.10;;;19.53;;
72974;SDS011;61166;54.228;37.632;2023-04-10T04:41:46;25.42;;;19.05;;
72974;SDS011;61166;54.228;37.632;2023-04-10T04:44:13;27.67;;;19.33;;
72974;SDS011;61166;54.228;37.632;2023-04-10T04:46:39;24.92;;;17.30;;
72974;SDS011;61166;54.228;37.632;2023-04-10T04:49:10;29.42;;;19.25;;
72974;SDS011;61166;54.228;37.632;2023-04-10T04:51:36;33.87;;;18.87;;
72974;SDS011;61166;54.228;37.632;2023-04-10T04:54:03;28.52;;;18.45;;
72974;SDS011;61166;54.228;37.632;2023-04-10T04:56:30;26.88;;;18.45;;
72974;SDS011;61166;54.228;37.632;2023-04-10T04:58:56;35.90;;;18.15;;
72974;SDS011;61166;54.228;37.632;2023-04-10T05:01:23;30.65;;;18.80;;
72974;SDS011;61166;54.228;37.632;2023-04-10T05:03:50;28.90;;;18.30;;
72974;SDS011;61166;54.228;37.632;2023-04-10T05:06:16;33.58;;;19.95;;
72974;SDS011;61166;54.228;37.632;2023-04-10T05:08:43;26.83;;;19.67;;
72974;SDS011;61166;54.228;37.632;2023-04-10T05:11:10;30.30;;;18.25;;
72974;SDS011;61166;54.228;37.632;2023-04-10T05:13:36;31.30;;;20.55;;
72974;SDS011;61166;54.228;37.632;2023-04-10T05:16:03;32.27;;;20.83;;
72974;SDS011;61166;54.228;37.632;2023-04-10T05:18:29;32.45;;;20.70;;
72974;SDS011;61166;54.228;37.632;2023-04-10T05:20:56;32.03;;;20.20;;
72974;SDS011;61166;54.228;37.632;2023-04-10T05:23:22;31.65;;;19.63;;
72974;SDS011;61166;54.228;37.632;2023-04-10T05:25:49;33.33;;;20.58;;
72974;SDS011;61166;54.228;37.632;2023-04-10T05:28:15;39.83;;;19.83;;
72974;SDS011;61166;54.228;37.632;2023-04-10T05:30:42;32.25;;;19.50;;
72974;SDS011;61166;54.228;37.632;2023-04-10T05:33:09;36.17;;;20.50;;
72974;SDS011;61166;54.228;37.632;2023-04-10T05:35:35;29.90;;;18.73;;
72974;SDS011;61166;54.228;37.632;2023-04-10T05:38:02;32.00;;;21.05;;
72974;SDS011;61166;54.228;37.632;2023-04-10T05:40:28;36.77;;;21.33;;
72974;SDS011;61166;54.228;37.632;2023-04-10T05:42:55;34.10;;;21.33;;
72974;SDS011;61166;54.228;37.632;2023-04-10T05:45:22;40.58;;;23.20;;
72974;SDS011;61166;54.228;37.632;2023-04-10T05:47:48;44.88;;;23.40;;
72974;SDS011;61166;54.228;37.632;2023-04-10T05:50:15;47.30;;;23.67;;
72974;SDS011;61166;54.228;37.632;2023-04-10T05:52:41;43.40;;;23.10;;
72974;SDS011;61166;54.228;37.632;2023-04-10T05:55:08;47.97;;;23.60;;
72974;SDS011;61166;54.228;37.632;2023-04-10T05:57:35;50.97;;;25.63;;
72974;SDS011;61166;54.228;37.632;2023-04-10T06:00:01;41.88;;;23.35;;
72974;SDS011;61166;54.228;37.632;2023-04-10T06:02:28;53.38;;;25.13;;
72974;SDS011;61166;54.228;37.632;2023-04-10T06:04:55;45.57;;;25.43;;
72974;SDS011;61166;54.228;37.632;2023-04-10T06:07:21;59.33;;;27.27;;
72974;SDS011;61166;54.228;37.632;2023-04-10T06:09:48;52.00;;;27.20;;
72974;SDS011;61166;54.228;37.632;2023-04-10T06:12:15;44.75;;;24.35;;
72974;SDS011;61166;54.228;37.632;2023-04-10T06:14:41;41.65;;;23.88;;
72974;SDS011;61166;54.228;37.632;2023-04-10T06:17:08;41.20;;;23.73;;
72974;SDS011;61166;54.228;37.632;2023-04-10T06:19:34;46.10;;;24.30;;
72974;SDS011;61166;54.228;37.632;2023-04-10T06:22:01;51.25;;;25.73;;
72974;SDS011;61166;54.228;37.632;2023-04-10T06:24:27;47.97;;;23.02;;
72974;SDS011;61166;54.228;37.632;2023-04-10T06:26:54;46.22;;;24.02;;
72974;SDS011;61166;54.228;37.632;2023-04-10T06:29:20;47.67;;;23.30;;
72974;SDS011;61166;54.228;37.632;2023-04-10T06:31:47;40.83;;;22.45;;
72974;SDS011;61166;54.228;37.632;2023-04-10T06:34:13;40.67;;;22.80;;
72974;SDS011;61166;54.228;37.632;2023-04-10T06:36:40;36.58;;;21.73;;
72974;SDS011;61166;54.228;37.632;2023-04-10T06:39:06;44.58;;;23.15;;
72974;SDS011;61166;54.228;37.632;2023-04-10T06:41:33;41.17;;;22.10;;
72974;SDS011;61166;54.228;37.632;2023-04-10T06:43:59;42.28;;;21.95;;
72974;SDS011;61166;54.228;37.632;2023-04-10T06:46:28;37.08;;;22.05;;
72974;SDS011;61166;54.228;37.632;2023-04-10T06:48:55;48.28;;;23.10;;
72974;SDS011;61166;54.228;37.632;2023-04-10T06:51:22;35.00;;;21.35;;
72974;SDS011;61166;54.228;37.632;2023-04-10T06:53:48;32.20;;;21.43;;
72974;SDS011;61166;54.228;37.632;2023-04-10T06:56:15;32.90;;;19.73;;
72974;SDS011;61166;54.228;37.632;2023-04-10T06:58:41;36.67;;;20.95;;
72974;SDS011;61166;54.228;37.632;2023-04-10T07:01:08;32.35;;;20.02;;
72974;SDS011;61166;54.228;37.632;2023-04-10T07:03:35;31.88;;;19.98;;
72974;SDS011;61166;54.228;37.632;2023-04-10T07:06:01;24.97;;;18.07;;
72974;SDS011;61166;54.228;37.632;2023-04-10T07:08:28;28.17;;;19.73;;
72974;SDS011;61166;54.228;37.632;2023-04-10T07:10:55;35.65;;;19.90;;
72974;SDS011;61166;54.228;37.632;2023-04-10T07:13:24;27.35;;;19.13;;
72974;SDS011;61166;54.228;37.632;2023-04-10T07:15:50;27.65;;;18.40;;
72974;SDS011;61166;54.228;37.632;2023-04-10T07:18:17;30.60;;;18.50;;
72974;SDS011;61166;54.228;37.632;2023-04-10T07:20:43;24.95;;;16.88;;
72974;SDS011;61166;54.228;37.632;2023-04-10T07:23:10;26.38;;;18.63;;
72974;SDS011;61166;54.228;37.632;2023-04-10T07:25:36;22.30;;;16.90;;
72974;SDS011;61166;54.228;37.632;2023-04-10T07:28:03;23.90;;;17.38;;
72974;SDS011;61166;54.228;37.632;2023-04-10T07:30:29;23.37;;;16.43;;
72974;SDS011;61166;54.228;37.632;2023-04-10T07:32:56;27.23;;;16.08;;
72974;SDS011;61166;54.228;37.632;2023-04-10T07:35:23;26.55;;;15.30;;
72974;SDS011;61166;54.228;37.632;2023-04-10T07:37:49;19.35;;;15.18;;
72974;SDS011;61166;54.228;37.632;2023-04-10T07:40:16;20.38;;;16.55;;
72974;SDS011;61166;54.228;37.632;2023-04-10T07:42:42;20.30;;;13.70;;
72974;SDS011;61166;54.228;37.632;2023-04-10T07:45:09;20.75;;;14.27;;
72974;SDS011;61166;54.228;37.632;2023-04-10T07:47:36;19.40;;;14.20;;
72974;SDS011;61166;54.228;37.632;2023-04-10T07:50:02;23.13;;;17.02;;
72974;SDS011;61166;54.228;37.632;2023-04-10T07:52:29;23.13;;;15.48;;
72974;SDS011;61166;54.228;37.632;2023-04-10T07:54:56;19.20;;;14.90;;
72974;SDS011;61166;54.228;37.632;2023-04-10T07:57:23;17.85;;;15.00;;
72974;SDS011;61166;54.228;37.632;2023-04-10T07:59:49;19.70;;;14.68;;
72974;SDS011;61166;54.228;37.632;2023-04-10T08:02:17;20.48;;;14.18;;
72974;SDS011;61166;54.228;37.632;2023-04-10T08:04:43;17.77;;;12.60;;
72974;SDS011;61166;54.228;37.632;2023-04-10T08:07:10;20.43;;;14.10;;
72974;SDS011;61166;54.228;37.632;2023-04-10T08:09:36;19.70;;;12.95;;
72974;SDS011;61166;54.228;37.632;2023-04-10T08:12:03;20.35;;;15.30;;
72974;SDS011;61166;54.228;37.632;2023-04-10T08:14:29;20.08;;;14.73;;
72974;SDS011;61166;54.228;37.632;2023-04-10T08:16:56;19.17;;;12.88;;
72974;SDS011;61166;54.228;37.632;2023-04-10T08:19:23;22.27;;;13.60;;
72974;SDS011;61166;54.228;37.632;2023-04-10T08:21:49;21.52;;;13.55;;
72974;SDS011;61166;54.228;37.632;2023-04-10T08:24:16;20.23;;;14.30;;
72974;SDS011;61166;54.228;37.632;2023-04-10T08:26:42;20.27;;;13.68;;
72974;SDS011;61166;54.228;37.632;2023-04-10T08:29:08;19.92;;;13.57;;
72974;SDS011;61166;54.228;37.632;2023-04-10T08:31:35;23.93;;;16.73;;
72974;SDS011;61166;54.228;37.632;2023-04-10T08:34:02;18.52;;;13.18;;
72974;SDS011;61166;54.228;37.632;2023-04-10T08:36:28;21.92;;;14.60;;
72974;SDS011;61166;54.228;37.632;2023-04-10T08:38:55;20.45;;;14.32;;
72974;SDS011;61166;54.228;37.632;2023-04-10T08:41:22;22.17;;;14.85;;
72974;SDS011;61166;54.228;37.632;2023-04-10T08:43:48;21.27;;;14.63;;
72974;SDS011;61166;54.228;37.632;2023-04-10T08:46:15;20.80;;;15.05;;
72974;SDS011;61166;54.228;37.632;2023-04-10T08:51:18;19.52;;;13.75;;
72974;SDS011;61166;54.228;37.632;2023-04-10T08:53:53;21.92;;;12.15;;
72974;SDS011;61166;54.228;37.632;2023-04-10T08:56:27;18.07;;;12.13;;
72974;SDS011;61166;54.228;37.632;2023-04-10T08:58:56;25.02;;;14.43;;
72974;SDS011;61166;54.228;37.632;2023-04-10T09:01:22;21.38;;;14.57;;
72974;SDS011;61166;54.228;37.632;2023-04-10T09:03:50;30.13;;;19.67;;
72974;SDS011;61166;54.228;37.632;2023-04-10T09:06:17;22.10;;;15.82;;
72974;SDS011;61166;54.228;37.632;2023-04-10T09:08:44;21.27;;;14.70;;
72974;SDS011;61166;54.228;37.632;2023-04-10T09:11:10;22.67;;;14.07;;
72974;SDS011;61166;54.228;37.632;2023-04-10T09:16:05;23.02;;;16.58;;
72974;SDS011;61166;54.228;37.632;2023-04-10T09:21:17;26.80;;;17.40;;
72974;SDS011;61166;54.228;37.632;2023-04-10T09:23:45;22.83;;;15.77;;
72974;SDS011;61166;54.228;37.632;2023-04-10T09:26:23;31.60;;;23.10;;
72974;SDS011;61166;54.228;37.632;2023-04-10T09:28:57;24.77;;;17.88;;
72974;SDS011;61166;54.228;37.632;2023-04-10T09:36:34;50.90;;;37.30;;
72974;SDS011;61166;54.228;37.632;2023-04-10T09:39:00;33.63;;;26.40;;
72974;SDS011;61166;54.228;37.632;2023-04-10T09:41:27;33.85;;;24.52;;
72974;SDS011;61166;54.228;37.632;2023-04-10T09:46:58;94.87;;;67.13;;
72974;SDS011;61166;54.228;37.632;2023-04-10T09:49:47;124.97;;;78.35;;
72974;SDS011;61166;54.228;37.632;2023-04-10T09:52:21;75.28;;;56.78;;
72974;SDS011;61166;54.228;37.632;2023-04-10T09:54:50;49.70;;;42.28;;
72974;SDS011;61166;54.228;37.632;2023-04-10T09:57:17;29.73;;;22.55;;
72974;SDS011;61166;54.228;37.632;2023-04-10T09:59:52;34.87;;;26.40;;
72974;SDS011;61166;54.228;37.632;2023-04-10T10:02:20;27.73;;;16.30;;
72974;SDS011;61166;54.228;37.632;2023-04-10T10:04:49;31.05;;;19.25;;
72974;SDS011;61166;54.228;37.632;2023-04-10T10:07:17;58.20;;;47.83;;
72974;SDS011;61166;54.228;37.632;2023-04-10T10:09:47;42.30;;;35.00;;
72974;SDS011;61166;54.228;37.632;2023-04-10T10:12:16;42.53;;;35.37;;
72974;SDS011;61166;54.228;37.632;2023-04-10T10:18:12;61.28;;;49.00;;
72974;SDS011;61166;54.228;37.632;2023-04-10T10:20:47;57.00;;;45.83;;
72974;SDS011;61166;54.228;37.632;2023-04-10T10:23:15;54.83;;;46.60;;
72974;SDS011;61166;54.228;37.632;2023-04-10T10:25:42;65.43;;;50.60;;
72974;SDS011;61166;54.228;37.632;2023-04-10T10:28:11;67.28;;;52.63;;
72974;SDS011;61166;54.228;37.632;2023-04-10T10:30:39;82.60;;;57.78;;
72974;SDS011;61166;54.228;37.632;2023-04-10T10:33:07;86.15;;;59.03;;
72974;SDS011;61166;54.228;37.632;2023-04-10T10:35:35;99.72;;;66.13;;
72974;SDS011;61166;54.228;37.632;2023-04-10T10:38:03;122.70;;;72.77;;
72974;SDS011;61166;54.228;37.632;2023-04-10T10:40:31;120.88;;;72.63;;
72974;SDS011;61166;54.228;37.632;2023-04-10T10:45:40;121.28;;;73.82;;
72974;SDS011;61166;54.228;37.632;2023-04-10T10:48:13;130.68;;;76.55;;
72974;SDS011;61166;54.228;37.632;2023-04-10T10:50:50;112.30;;;68.37;;
72974;SDS011;61166;54.228;37.632;2023-04-10T10:53:51;117.05;;;71.43;;
72974;SDS011;61166;54.228;37.632;2023-04-10T10:56:53;142.25;;;79.25;;
72974;SDS011;61166;54.228;37.632;2023-04-10T10:59:00;113.97;;;69.88;;
72974;SDS011;61166;54.228;37.632;2023-04-10T11:01:27;109.05;;;70.13;;
72974;SDS011;61166;54.228;37.632;2023-04-10T11:03:54;105.90;;;67.73;;
72974;SDS011;61166;54.228;37.632;2023-04-10T11:06:26;103.07;;;66.00;;
72974;SDS011;61166;54.228;37.632;2023-04-10T11:09:59;103.22;;;65.00;;
72974;SDS011;61166;54.228;37.632;2023-04-10T11:12:23;98.60;;;65.20;;
72974;SDS011;61166;54.228;37.632;2023-04-10T11:14:59;94.72;;;63.33;;
72974;SDS011;61166;54.228;37.632;2023-04-10T11:20:17;93.65;;;62.38;;
72974;SDS011;61166;54.228;37.632;2023-04-10T11:25:50;114.75;;;67.65;;
72974;SDS011;61166;54.228;37.632;2023-04-10T11:28:36;46.35;;;39.60;;
72974;SDS011;61166;54.228;37.632;2023-04-10T11:31:15;78.97;;;55.60;;
72974;SDS011;61166;54.228;37.632;2023-04-10T11:33:44;84.55;;;56.72;;
72974;SDS011;61166;54.228;37.632;2023-04-10T11:36:14;70.20;;;50.50;;
72974;SDS011;61166;54.228;37.632;2023-04-10T11:38:52;44.20;;;35.05;;
72974;SDS011;61166;54.228;37.632;2023-04-10T11:41:28;46.83;;;27.42;;
72974;SDS011;61166;54.228;37.632;2023-04-10T11:44:00;26.57;;;14.93;;
72974;SDS011;61166;54.228;37.632;2023-04-10T11:46:28;18.55;;;11.00;;
72974;SDS011;61166;54.228;37.632;2023-04-10T11:48:58;25.73;;;15.00;;
72974;SDS011;61166;54.228;37.632;2023-04-10T11:51:26;82.93;;;57.10;;
72974;SDS011;61166;54.228;37.632;2023-04-10T11:56:30;41.03;;;35.70;;
72974;SDS011;61166;54.228;37.632;2023-04-10T11:58:56;23.80;;;21.20;;
72974;SDS011;61166;54.228;37.632;2023-04-10T12:01:23;23.65;;;15.88;;
72974;SDS011;61166;54.228;37.632;2023-04-10T12:03:50;20.10;;;11.13;;
72974;SDS011;61166;54.228;37.632;2023-04-10T12:06:17;30.83;;;17.52;;
72974;SDS011;61166;54.228;37.632;2023-04-10T12:08:45;27.40;;;14.83;;
72974;SDS011;61166;54.228;37.632;2023-04-10T12:11:12;29.98;;;16.85;;
72974;SDS011;61166;54.228;37.632;2023-04-10T12:13:39;24.35;;;16.30;;
72974;SDS011;61166;54.228;37.632;2023-04-10T12:16:06;26.65;;;19.80;;
72974;SDS011;61166;54.228;37.632;2023-04-10T12:18:33;25.27;;;22.67;;
72974;SDS011;61166;54.228;37.632;2023-04-10T12:21:01;82.70;;;57.47;;
72974;SDS011;61166;54.228;37.632;2023-04-10T12:23:30;335.60;;;139.85;;
72974;SDS011;61166;54.228;37.632;2023-04-10T12:26:07;814.10;;;351.30;;
72974;SDS011;61166;54.228;37.632;2023-04-10T12:28:34;848.83;;;362.75;;
72974;SDS011;61166;54.228;37.632;2023-04-10T12:31:00;1028.85;;;469.42;;
72974;SDS011;61166;54.228;37.632;2023-04-10T12:33:27;1031.77;;;487.73;;
72974;SDS011;61166;54.228;37.632;2023-04-10T12:35:53;1084.82;;;523.75;;
72974;SDS011;61166;54.228;37.632;2023-04-10T12:38:36;745.97;;;323.80;;
72974;SDS011;61166;54.228;37.632;2023-04-10T12:41:03;848.75;;;373.83;;
72974;SDS011;61166;54.228;37.632;2023-04-10T12:43:33;876.67;;;384.63;;
72974;SDS011;61166;54.228;37.632;2023-04-10T12:46:02;804.07;;;356.93;;
72974;SDS011;61166;54.228;37.632;2023-04-10T12:48:29;858.22;;;383.48;;
72974;SDS011;61166;54.228;37.632;2023-04-10T12:50:56;1107.70;;;536.15;;
72974;SDS011;61166;54.228;37.632;2023-04-10T12:53:22;1023.92;;;488.95;;
72974;SDS011;61166;54.228;37.632;2023-04-10T12:56:22;1056.25;;;523.28;;
72974;SDS011;61166;54.228;37.632;2023-04-10T12:58:42;1013.20;;;476.57;;
72974;SDS011;61166;54.228;37.632;2023-04-10T13:01:08;1007.85;;;476.60;;
72974;SDS011;61166;54.228;37.632;2023-04-10T13:03:35;975.55;;;455.50;;
72974;SDS011;61166;54.228;37.632;2023-04-10T13:06:05;699.17;;;308.60;;
72974;SDS011;61166;54.228;37.632;2023-04-10T13:08:33;700.08;;;311.23;;
72974;SDS011;61166;54.228;37.632;2023-04-10T13:11:00;691.27;;;307.93;;
72974;SDS011;61166;54.228;37.632;2023-04-10T13:13:26;678.45;;;303.08;;
72974;SDS011;61166;54.228;37.632;2023-04-10T13:15:54;484.65;;;201.15;;
72974;SDS011;61166;54.228;37.632;2023-04-10T13:18:20;273.25;;;124.95;;
72974;SDS011;61166;54.228;37.632;2023-04-10T13:20:47;37.28;;;23.88;;
72974;SDS011;61166;54.228;37.632;2023-04-10T13:23:13;17.97;;;10.20;;
72974;SDS011;61166;54.228;37.632;2023-04-10T13:25:40;16.33;;;9.23;;
72974;SDS011;61166;54.228;37.632;2023-04-10T13:28:06;26.10;;;16.60;;
72974;SDS011;61166;54.228;37.632;2023-04-10T13:30:33;15.27;;;9.55;;
72974;SDS011;61166;54.228;37.632;2023-04-10T13:32:59;18.70;;;8.98;;
72974;SDS011;61166;54.228;37.632;2023-04-10T13:35:26;13.87;;;8.60;;
72974;SDS011;61166;54.228;37.632;2023-04-10T13:37:53;12.30;;;7.88;;
72974;SDS011;61166;54.228;37.632;2023-04-10T13:40:19;17.73;;;8.45;;
72974;SDS011;61166;54.228;37.632;2023-04-10T13:42:46;15.48;;;9.40;;
72974;SDS011;61166;54.228;37.632;2023-04-10T13:45:14;16.52;;;10.32;;
72974;SDS011;61166;54.228;37.632;2023-04-10T13:47:42;16.93;;;9.83;;
72974;SDS011;61166;54.228;37.632;2023-04-10T13:50:08;21.63;;;11.23;;
72974;SDS011;61166;54.228;37.632;2023-04-10T13:52:36;21.00;;;9.75;;
72974;SDS011;61166;54.228;37.632;2023-04-10T13:55:02;15.90;;;9.25;;
72974;SDS011;61166;54.228;37.632;2023-04-10T13:57:29;14.68;;;8.05;;
72974;SDS011;61166;54.228;37.632;2023-04-10T13:59:57;14.53;;;9.30;;
72974;SDS011;61166;54.228;37.632;2023-04-10T14:02:23;16.05;;;8.60;;
72974;SDS011;61166;54.228;37.632;2023-04-10T14:04:50;14.70;;;8.73;;
72974;SDS011;61166;54.228;37.632;2023-04-10T14:07:17;13.50;;;7.72;;
72974;SDS011;61166;54.228;37.632;2023-04-10T14:09:44;16.88;;;9.00;;
72974;SDS011;61166;54.228;37.632;2023-04-10T14:12:10;17.23;;;9.37;;
72974;SDS011;61166;54.228;37.632;2023-04-10T14:14:37;12.73;;;7.60;;
72974;SDS011;61166;54.228;37.632;2023-04-10T14:17:04;14.27;;;8.75;;
72974;SDS011;61166;54.228;37.632;2023-04-10T14:19:32;17.27;;;7.10;;
72974;SDS011;61166;54.228;37.632;2023-04-10T14:21:59;15.88;;;8.75;;
72974;SDS011;61166;54.228;37.632;2023-04-10T14:24:26;16.70;;;7.83;;
72974;SDS011;61166;54.228;37.632;2023-04-10T14:26:54;13.95;;;8.90;;
72974;SDS011;61166;54.228;37.632;2023-04-10T14:29:20;14.18;;;8.20;;
72974;SDS011;61166;54.228;37.632;2023-04-10T14:31:58;21.95;;;10.57;;
72974;SDS011;61166;54.228;37.632;2023-04-10T14:34:25;13.63;;;8.07;;
72974;SDS011;61166;54.228;37.632;2023-04-10T14:36:51;11.70;;;7.73;;
72974;SDS011;61166;54.228;37.632;2023-04-10T14:39:17;17.67;;;7.93;;
72974;SDS011;61166;54.228;37.632;2023-04-10T14:41:45;15.93;;;7.35;;
72974;SDS011;61166;54.228;37.632;2023-04-10T14:44:11;11.43;;;5.97;;
72974;SDS011;61166;54.228;37.632;2023-04-10T14:46:37;13.70;;;6.30;;
72974;SDS011;61166;54.228;37.632;2023-04-10T14:49:05;13.53;;;6.43;;
72974;SDS011;61166;54.228;37.632;2023-04-10T14:51:32;14.15;;;7.72;;
72974;SDS011;61166;54.228;37.632;2023-04-10T14:53:58;10.70;;;6.57;;
72974;SDS011;61166;54.228;37.632;2023-04-10T14:56:25;16.10;;;9.15;;